Flight Track Log - Related Links

Times and Time Zones

All times are in EDT time to prevent confusion due to time zone crossing. See the CTL337 flight status page for this flight to view local times or setup timezone preferences in your user account.

Time Position Orientation Groundspeed Altitude Reporting Facility
EDT Latitude Longitude Course Direction KTS MPH feet Rate Location/Type
Fri 01:07:04 AM 40.0431 -83.1625 236° Southwest 119 137 3,400  Level Indianapolis Center
Fri 01:07:40 AM 40.0328 -83.1828 237° Southwest 111 128 4,100 852 Climbing Indianapolis Center
Fri 01:09:00 AM 39.9968 -83.2398 237° Southwest  Level FlightAware Approximate
Fri 01:10:07 AM 39.9928 -83.2606 237° Southwest 111 128 6,000  Level Indianapolis Center
Fri 01:10:42 AM 39.9808 -83.2833 236° Southwest 132 152 6,100 -63 Climbing Indianapolis Center
Fri 01:11:42 AM 39.9569 -83.3342 239° Southwest 156 180 5,900 -99 Descending Indianapolis Center
Fri 01:12:43 AM 39.9333 -83.3822 237° Southwest 158 182 5,900 49 Level Indianapolis Center
Fri 01:13:44 AM 39.9114 -83.4331 241° Southwest 156 180 6,000 50 Climbing Indianapolis Center
Fri 01:14:44 AM 39.8878 -83.4808 237° Southwest 155 178 6,000 -50 Level Indianapolis Center
Fri 01:15:45 AM 39.8642 -83.5289 237° Southwest 160 184 5,900  Descending Indianapolis Center
Fri 01:16:00 AM 39.8368 -83.5579 237° Southwest  Level FlightAware Approximate
Fri 01:16:45 AM 39.8403 -83.5767 237° Southwest 161 185 6,000  Level Indianapolis Center
Fri 01:17:46 AM 39.8169 -83.6217 236° Southwest 160 184 6,000 49 Level Indianapolis Center
Fri 01:18:47 AM 39.7931 -83.6694 237° Southwest 155 178 6,100 50 Climbing Indianapolis Center
Fri 01:19:47 AM 39.7667 -83.7222 237° Southwest 158 182 6,100  Level Indianapolis Center
Fri 01:20:48 AM 39.7408 -83.7694 235° Southwest 163 188 6,100  Level Indianapolis Center
Fri 01:21:48 AM 39.7167 -83.8200 238° Southwest 164 189 6,100  Level Indianapolis Center
Fri 01:22:49 AM 39.6928 -83.8703 238° Southwest 163 188 6,100 -49 Level Indianapolis Center
Fri 01:23:50 AM 39.6728 -83.9211 243° Southwest 162 186 6,000 -50 Descending Indianapolis Center
Fri 01:24:50 AM 39.6503 -83.9744 241° Southwest 161 185 6,000  Level Indianapolis Center
Fri 01:25:51 AM 39.6264 -84.0219 237° Southwest 158 182 6,000 -50 Level Indianapolis Center
Fri 01:26:51 AM 39.6000 -84.0717 235° Southwest 158 182 5,900 -347 Descending Indianapolis Center
Fri 01:27:52 AM 39.5744 -84.1161 233° Southwest 165 190 5,300 -689 Descending Indianapolis Center
Fri 01:28:53 AM 39.5492 -84.1742 241° Southwest 177 204 4,500 -645 Descending Indianapolis Center
Fri 01:29:53 AM 39.5225 -84.2292 238° Southwest 178 205 4,000 -298 Descending Indianapolis Center
Fri 01:31:14 AM 39.4908 -84.2925 237° Southwest 166 191 3,800 -298 Descending Indianapolis Center
Fri 01:32:14 AM 39.4631 -84.3375 231° Southwest 160 184 3,300 -446 Descending Indianapolis Center
Fri 01:33:15 AM 39.4367 -84.3769 229° Southwest 161 185 2,900 -393 Descending Indianapolis Center
Fri 01:35:00 AM 39.3904 -84.4491 243° Southwest  Level FlightAware Approximate
Fri 01:42:00 AM 39.3500 -84.5167 229° Southwest  Level FlightAware Approximate
Fri 01:43:00 AM 39.3638 -84.5219 229° Southwest  Level Estimated

Login

Don't have an account? Register now (free) for customized features, flight alerts, and more!